KBWP

Details ICAO KBWP
Name HARRY STERN
Region United States
Timezone America/Chicago (UTC-6.0)
Plans Departing 1
Arriving 1
Stats Elevation 968 ft / 295 m (AMSL)
Location 46.244080° -96.607441°
Runways 2
Magnetic Variation 2.817° E
Sunrise 2017-12-16 14:04:50 UTC / 2017-12-16 08:04:50 Local
Sunset 2017-12-16 22:42:18 UTC / 2017-12-16 16:42:18 Local
Advertisement - Login to hide

Runways

ID Width Length Bearing (true) Bearing (mag) Surface Threshold Offset Overrun Length
03 150 ft / 46 m 3,278 ft / 999 m 37.54° 34.72° Grass 0 ft / 0 m 0 ft / 0 m
15 75 ft / 23 m 5,101 ft / 1,555 m 155.99° 153.17° Asphalt 0 ft / 0 m 0 ft / 0 m
21 150 ft / 46 m 3,278 ft / 999 m 217.54° 214.72° Grass 0 ft / 0 m 0 ft / 0 m
33 75 ft / 23 m 5,101 ft / 1,555 m 336.00° 333.18° Asphalt 0 ft / 0 m 0 ft / 0 m

Map

Weather


0- 5 10 15 20 25 30 35+ Temperature / ° C

Clouds and Precipitation
Forecast for 2017-12-16 12:00 UTC. Updated 26 minutes ago

Ground ~20,000 ft ~40,000 ft Winds

METAR

KBWP 161135Z AUTO 00000KT 10SM BKN060 OVC110 M02/M04 A2970 RMK AO1

TAF

Not found

Frequencies

Recorded 127.87 MHz AWOS 3
Unicom 123.00 MHz CTAF/UNICOM
Warning: Do not use this data for real-world aviation or navigation. No guarantee of current accuracy is given.